createdAt,value
2019-04-20T00:00:12.800Z,102373.90
2019-04-20T00:00:56.864Z,102375.20
2019-04-20T00:01:32.170Z,102370.28
2019-04-20T00:02:08.333Z,102382.00
2019-04-20T00:02:35.841Z,102378.06
2019-04-20T00:03:07.687Z,102375.75
2019-04-20T00:03:42.322Z,102378.67
2019-04-20T00:04:19.467Z,102377.70
2019-04-20T00:04:45.336Z,102372.47
2019-04-20T00:05:16.991Z,102375.98
2019-04-20T00:05:48.965Z,102377.70
2019-04-20T00:06:21.506Z,102377.70
2019-04-20T00:06:54.749Z,102374.52
2019-04-20T00:07:30.969Z,102377.84
2019-04-20T00:08:01.185Z,102376.77
2019-04-20T00:08:36.106Z,102370.36
2019-04-20T00:09:12.265Z,102376.40
2019-04-20T00:09:41.690Z,102375.33
2019-04-20T00:10:17.042Z,102378.75
2019-04-20T00:10:54.834Z,102377.03
2019-04-20T00:11:27.518Z,102374.25
2019-04-20T00:12:03.065Z,102355.33
2019-04-20T00:12:39.732Z,102368.68
2019-04-20T00:13:08.811Z,102374.08
2019-04-20T00:13:43.547Z,102377.00
2019-04-20T00:14:11.182Z,102372.41
2019-04-20T00:14:39.103Z,102373.71
2019-04-20T00:15:11.125Z,102376.73
2019-04-20T00:15:43.045Z,102374.45
2019-04-20T00:16:14.762Z,102374.45
2019-04-20T00:16:46.155Z,102367.80
2019-04-20T00:17:17.880Z,102372.53
2019-04-20T00:17:53.885Z,102372.53
2019-04-20T00:18:25.916Z,102374.34
2019-04-20T00:18:59.115Z,102372.06
2019-04-20T00:19:35.319Z,102369.17
2019-04-20T00:20:09.655Z,102362.93
2019-04-20T00:20:39.045Z,102356.05
2019-04-20T00:21:29.166Z,102372.20
2019-04-20T00:22:07.923Z,102374.20
2019-04-20T00:22:55.491Z,102374.20
2019-04-20T00:23:33.768Z,102369.07
2019-04-20T00:24:10.339Z,102369.07
2019-04-20T00:24:45.422Z,102371.52
2019-04-20T00:25:47.511Z,102366.58
2019-04-20T00:26:51.099Z,102369.03
2019-04-20T00:27:16.224Z,102372.16
2019-04-20T00:27:49.997Z,102374.16
2019-04-20T00:28:19.497Z,102370.17
2019-04-20T00:28:55.971Z,102372.68
2019-04-20T00:29:30.932Z,102370.47
2019-04-20T00:29:59.701Z,102368.58
2019-04-20T00:30:43.495Z,102369.39
2019-04-20T00:31:09.738Z,102370.19
2019-04-20T00:31:40.250Z,102363.58
2019-04-20T00:32:11.529Z,102369.28
2019-04-20T00:32:46.811Z,102367.51
2019-04-20T00:33:14.763Z,102375.65
2019-04-20T00:33:50.647Z,102376.56
2019-04-20T00:34:18.369Z,102368.31
2019-04-20T00:34:47.079Z,102373.94
2019-04-20T00:35:18.563Z,102368.61
2019-04-20T00:35:50.409Z,102351.78
2019-04-20T00:36:22.214Z,102364.84
2019-04-20T00:36:54.070Z,102367.58
2019-04-20T00:37:25.453Z,102362.77
2019-04-20T00:37:57.082Z,102363.39
2019-04-20T00:38:35.177Z,102361.91
2019-04-20T00:39:05.954Z,102361.80
2019-04-20T00:39:36.126Z,102363.22
2019-04-20T00:40:07.859Z,102356.50
2019-04-20T00:40:39.287Z,102362.03
2019-04-20T00:41:13.481Z,102361.73
2019-04-20T00:41:51.775Z,102365.66
2019-04-20T00:42:19.385Z,102362.64
2019-04-20T00:42:53.855Z,102367.27
2019-04-20T00:43:28.269Z,102361.34
2019-04-20T00:43:58.644Z,102363.45
2019-04-20T00:44:35.947Z,102365.67
2019-04-20T00:45:12.011Z,102361.28
2019-04-20T00:45:46.902Z,102360.16
2019-04-20T00:46:18.315Z,102360.38
2019-04-20T00:47:05.894Z,102360.38
2019-04-20T00:47:30.705Z,102359.48
2019-04-20T00:47:59.552Z,102363.55
2019-04-20T00:48:37.446Z,102363.55
2019-04-20T00:49:08.888Z,102361.95
2019-04-20T00:49:45.666Z,102365.19
2019-04-20T00:50:24.715Z,102361.56
2019-04-20T00:50:56.971Z,102358.04
2019-04-20T00:52:15.175Z,102351.15
2019-04-20T00:52:31.163Z,102363.48
2019-04-20T00:53:05.680Z,102357.36
2019-04-20T00:53:34.232Z,102357.36
2019-04-20T00:54:00.241Z,102360.88
2019-04-20T00:54:32.572Z,102360.98
2019-04-20T00:55:06.263Z,102354.84
2019-04-20T00:55:38.036Z,102359.17
2019-04-20T00:56:10.007Z,102361.78
2019-04-20T00:56:41.397Z,102347.91
2019-04-20T00:57:22.268Z,102347.91
2019-04-20T00:57:51.798Z,102324.41
2019-04-20T00:58:27.347Z,102349.22
2019-04-20T00:59:06.519Z,102349.30
2019-04-20T00:59:35.717Z,102331.22
2019-04-20T01:00:17.596Z,102331.22
2019-04-20T01:00:48.841Z,102352.59
2019-04-20T01:01:25.112Z,102352.59
2019-04-20T01:02:00.576Z,102348.73
2019-04-20T01:02:26.233Z,102331.69
2019-04-20T01:02:56.908Z,102331.69
2019-04-20T01:03:36.295Z,102353.78
2019-04-20T01:04:10.450Z,102349.02
2019-04-20T01:04:44.969Z,102349.02
2019-04-20T01:05:16.527Z,102357.70
2019-04-20T01:05:58.213Z,102357.70
2019-04-20T01:06:31.795Z,102347.87
2019-04-20T01:07:12.326Z,102350.66
2019-04-20T01:07:41.035Z,102360.93
2019-04-20T01:08:13.151Z,102360.93
2019-04-20T01:09:03.368Z,102333.33
2019-04-20T01:09:56.201Z,102352.13
2019-04-20T01:10:37.072Z,102359.34
2019-04-20T01:11:02.340Z,102359.34
2019-04-20T01:11:39.552Z,102352.13
2019-04-20T01:12:12.494Z,102358.08
2019-04-20T01:12:42.304Z,102354.45
2019-04-20T01:13:18.382Z,102354.45
2019-04-20T01:13:53.602Z,102354.45
2019-04-20T01:14:27.262Z,102348.21
2019-04-20T01:14:58.734Z,102356.67
2019-04-20T01:15:36.383Z,102357.47
2019-04-20T01:16:07.706Z,102357.47
2019-04-20T01:16:42.022Z,102353.91
2019-04-20T01:17:11.834Z,102353.91
2019-04-20T01:17:41.653Z,102361.39
2019-04-20T01:18:13.862Z,102356.16
2019-04-20T01:18:47.114Z,102329.56
2019-04-20T01:19:19.216Z,102354.56
2019-04-20T01:19:52.726Z,102334.75
2019-04-20T01:20:26.391Z,102334.75
2019-04-20T01:21:04.673Z,102352.45
2019-04-20T01:21:32.132Z,102341.09
2019-04-20T01:22:07.900Z,102345.92
2019-04-20T01:22:44.637Z,102322.02
2019-04-20T01:23:13.899Z,102339.06
2019-04-20T01:23:49.593Z,102339.57
2019-04-20T01:24:24.439Z,102345.30
2019-04-20T01:24:51.584Z,102340.08
2019-04-20T01:25:29.093Z,102337.86
2019-04-20T01:26:01.926Z,102324.70
2019-04-20T01:26:29.291Z,102346.22
2019-04-20T01:27:03.837Z,102346.22
2019-04-20T01:27:50.304Z,102342.59
2019-04-20T01:28:24.773Z,102342.59
2019-04-20T01:28:54.124Z,102325.83
2019-04-20T01:29:26.147Z,102325.83
2019-04-20T01:29:51.541Z,102338.67
2019-04-20T01:30:28.489Z,102333.95
2019-04-20T01:31:09.189Z,102334.86
2019-04-20T01:31:35.560Z,102337.98
2019-04-20T01:32:11.440Z,102336.77
2019-04-20T01:32:51.488Z,102317.87
2019-04-20T01:33:24.430Z,102333.95
2019-04-20T01:33:49.402Z,102303.73
2019-04-20T01:34:26.944Z,102335.25
2019-04-20T01:34:55.085Z,102333.55
2019-04-20T01:35:35.652Z,102329.52
2019-04-20T01:36:10.145Z,102334.13
2019-04-20T01:36:49.073Z,102331.34
2019-04-20T01:37:14.350Z,102323.80
2019-04-20T01:37:52.200Z,102327.53
2019-04-20T01:38:21.275Z,102330.55
2019-04-20T01:38:51.318Z,102327.42
2019-04-20T01:39:22.096Z,102327.64
2019-04-20T01:39:50.215Z,102328.95
2019-04-20T01:40:17.074Z,102327.64
2019-04-20T01:40:48.490Z,102312.02
2019-04-20T01:41:20.318Z,102312.02
2019-04-20T01:41:51.982Z,102320.35
2019-04-20T01:42:23.463Z,102311.14
2019-04-20T01:42:55.324Z,102311.14
2019-04-20T01:43:27.033Z,102324.27
2019-04-20T01:43:58.547Z,102324.16
2019-04-20T01:44:33.237Z,102324.16
2019-04-20T01:45:10.364Z,102326.70
2019-04-20T01:45:39.560Z,102307.44
2019-04-20T01:46:16.620Z,102330.52
2019-04-20T01:46:47.789Z,102326.30
2019-04-20T01:47:19.015Z,102308.95
2019-04-20T01:47:54.101Z,102305.77
2019-04-20T01:48:28.749Z,102305.77
2019-04-20T01:48:59.919Z,102320.71
2019-04-20T01:49:32.452Z,102322.02
2019-04-20T01:50:11.345Z,102332.34
2019-04-20T01:50:43.845Z,102332.34
2019-04-20T01:51:17.605Z,102325.82
2019-04-20T01:51:56.071Z,102325.82
2019-04-20T01:52:26.992Z,102325.53
2019-04-20T01:53:01.539Z,102325.61
2019-04-20T01:53:44.099Z,102315.80
2019-04-20T01:54:17.717Z,102315.80
2019-04-20T01:55:00.786Z,102321.72
2019-04-20T01:55:38.615Z,102321.72
2019-04-20T01:56:15.463Z,102324.73
2019-04-20T01:56:40.423Z,102324.73
2019-04-20T01:57:26.137Z,102322.70
2019-04-20T01:58:13.638Z,102309.78
2019-04-20T01:58:55.328Z,102321.94
2019-04-20T01:59:21.455Z,102322.22
2019-04-20T01:59:54.297Z,102316.89
2019-04-20T02:00:38.272Z,102316.89
2019-04-20T02:01:31.143Z,102309.11
2019-04-20T02:02:19.344Z,102307.59
2019-04-20T02:03:08.593Z,102307.59
2019-04-20T02:03:46.493Z,102324.53
2019-04-20T02:04:40.459Z,102324.53
2019-04-20T02:05:17.091Z,102328.27
2019-04-20T02:05:53.133Z,102326.85
2019-04-20T02:06:23.146Z,102326.85
2019-04-20T02:06:59.697Z,102323.55
2019-04-20T02:07:35.107Z,102326.66
2019-04-20T02:08:01.896Z,102327.06
2019-04-20T02:08:34.254Z,102327.06
2019-04-20T02:09:13.414Z,102319.23
2019-04-20T02:09:48.012Z,102320.94
2019-04-20T02:10:18.250Z,102320.94
2019-04-20T02:10:54.365Z,102312.30
2019-04-20T02:11:30.542Z,102323.75
2019-04-20T02:12:00.441Z,102323.75
2019-04-20T02:12:33.578Z,102319.05
2019-04-20T02:13:04.893Z,102323.87
2019-04-20T02:13:43.678Z,102316.33
2019-04-20T02:14:10.357Z,102303.08
2019-04-20T02:14:48.403Z,102323.75
2019-04-20T02:15:24.172Z,102324.55
2019-04-20T02:15:51.242Z,102320.95
2019-04-20T02:16:30.876Z,102316.74
2019-04-20T02:17:04.488Z,102302.38
2019-04-20T02:17:36.933Z,102322.88
2019-04-20T02:18:16.226Z,102328.70
2019-04-20T02:18:44.175Z,102304.10
2019-04-20T02:19:23.057Z,102306.20
2019-04-20T02:20:00.988Z,102311.42
2019-04-20T02:20:34.540Z,102311.42
2019-04-20T02:20:59.882Z,102324.34
2019-04-20T02:21:34.293Z,102324.34
2019-04-20T02:22:02.537Z,102312.81
2019-04-20T02:22:44.590Z,102303.00
2019-04-20T02:23:10.679Z,102303.00
2019-04-20T02:23:40.840Z,102318.36
2019-04-20T02:24:06.313Z,102316.14
2019-04-20T02:24:37.589Z,102306.12
2019-04-20T02:25:10.063Z,102304.70
2019-04-20T02:25:41.887Z,102304.70
2019-04-20T02:26:14.302Z,102318.36
2019-04-20T02:26:47.155Z,102321.47
2019-04-20T02:27:20.572Z,102305.01
2019-04-20T02:27:56.945Z,102319.56
2019-04-20T02:28:51.759Z,102319.56
2019-04-20T02:29:24.488Z,102311.52
2019-04-20T02:29:50.739Z,102314.95
2019-04-20T02:30:45.013Z,102297.67
2019-04-20T02:31:18.489Z,102316.94
2019-04-20T02:32:55.633Z,102315.33
2019-04-20T02:33:34.436Z,102304.91
2019-04-20T02:34:13.100Z,102301.37
2019-04-20T02:35:28.428Z,102311.04
2019-04-20T02:37:26.694Z,102320.56
2019-04-20T02:38:53.908Z,102321.25
2019-04-20T02:39:46.281Z,102317.74
2019-04-20T02:40:19.357Z,102313.13
2019-04-20T02:41:29.864Z,102310.80
2019-04-20T02:42:38.652Z,102305.11
2019-04-20T02:43:15.183Z,102305.91
2019-04-20T02:43:49.917Z,102300.69
2019-04-20T02:45:34.763Z,102298.08
2019-04-20T02:45:44.193Z,102311.03
2019-04-20T02:46:26.535Z,102311.03
2019-04-20T02:47:00.584Z,102306.89
2019-04-20T02:47:32.144Z,102300.80
2019-04-20T02:48:05.579Z,102300.80
2019-04-20T02:48:29.766Z,102298.08
2019-04-20T02:49:29.252Z,102286.05
2019-04-20T02:50:16.958Z,102297.66
2019-04-20T02:50:49.945Z,102295.96
2019-04-20T02:51:23.253Z,102295.18
2019-04-20T02:52:34.139Z,102300.27
2019-04-20T02:54:17.031Z,102302.41
2019-04-20T02:55:48.344Z,102287.34
2019-04-20T02:56:23.279Z,102287.34
2019-04-20T02:57:03.431Z,102292.05
2019-04-20T02:58:00.614Z,102288.30
2019-04-20T02:58:36.390Z,102288.30
2019-04-20T02:59:25.053Z,102305.16
2019-04-20T03:00:22.030Z,102290.80
2019-04-20T03:00:33.928Z,102305.25
2019-04-20T03:01:22.234Z,102305.25
2019-04-20T03:01:54.709Z,102299.25
2019-04-20T03:02:29.958Z,102303.23
2019-04-20T03:02:56.134Z,102308.17
2019-04-20T03:03:26.452Z,102288.79
2019-04-20T03:03:54.934Z,102289.30
2019-04-20T03:04:34.134Z,102312.08
2019-04-20T03:05:06.364Z,102307.77
2019-04-20T03:05:39.487Z,102309.16
2019-04-20T03:06:17.176Z,102309.16
2019-04-20T03:06:53.506Z,102300.04
2019-04-20T03:07:25.539Z,102306.16
2019-04-20T03:08:04.569Z,102306.16
2019-04-20T03:08:31.684Z,102308.25
2019-04-20T03:09:09.030Z,102308.25
2019-04-20T03:09:39.931Z,102297.04
2019-04-20T03:10:12.374Z,102297.04
2019-04-20T03:10:54.948Z,102302.73
2019-04-20T03:11:29.430Z,102302.73
2019-04-20T03:12:04.529Z,102298.14
2019-04-20T03:12:34.467Z,102286.19
2019-04-20T03:13:05.388Z,102286.19
2019-04-20T03:13:35.706Z,102283.19
2019-04-20T03:14:03.698Z,102298.03
2019-04-20T03:14:34.955Z,102284.88
2019-04-20T03:15:09.424Z,102302.25
2019-04-20T03:15:51.903Z,102302.25
2019-04-20T03:16:16.328Z,102300.34
2019-04-20T03:16:54.158Z,102300.34
2019-04-20T03:17:31.090Z,102306.78
2019-04-20T03:18:03.578Z,102306.78
2019-04-20T03:18:33.228Z,102298.66
2019-04-20T03:19:06.819Z,102298.94
2019-04-20T03:19:35.867Z,102300.04
2019-04-20T03:20:06.163Z,102297.83
2019-04-20T03:20:45.997Z,102282.36
2019-04-20T03:21:27.272Z,102304.14
2019-04-20T03:22:00.450Z,102304.14
2019-04-20T03:22:33.757Z,102290.17
2019-04-20T03:23:17.719Z,102302.92
2019-04-20T03:23:44.454Z,102300.91
2019-04-20T03:24:12.780Z,102300.91
2019-04-20T03:24:43.906Z,102285.83
2019-04-20T03:25:17.945Z,102290.77
2019-04-20T03:25:58.407Z,102295.66
2019-04-20T03:26:34.142Z,102293.05
2019-04-20T03:27:07.783Z,102293.05
2019-04-20T03:27:41.259Z,102291.36
2019-04-20T03:28:18.334Z,102293.38
2019-04-20T03:29:07.819Z,102293.38
2019-04-20T03:29:51.093Z,102294.67
2019-04-20T03:31:05.737Z,102293.77
2019-04-20T03:32:56.131Z,102291.00
2019-04-20T03:33:58.279Z,102288.67
2019-04-20T03:35:28.609Z,102273.20
2019-04-20T03:35:51.550Z,102287.37
2019-04-20T03:36:25.720Z,102293.38
2019-04-20T03:37:06.826Z,102292.58
2019-04-20T03:38:01.673Z,102291.79
2019-04-20T03:38:29.872Z,102295.30
2019-04-20T03:39:01.433Z,102293.89
2019-04-20T03:39:33.431Z,102293.89
2019-04-20T03:40:05.469Z,102284.77
2019-04-20T03:40:36.471Z,102291.88
2019-04-20T03:41:11.147Z,102291.88
2019-04-20T03:41:34.980Z,102292.27
2019-04-20T03:42:01.094Z,102292.27
2019-04-20T03:42:33.428Z,102293.56
2019-04-20T03:43:05.616Z,102290.56
2019-04-20T03:43:37.122Z,102275.49
2019-04-20T03:44:12.567Z,102275.49
2019-04-20T03:44:50.159Z,102282.95
2019-04-20T03:45:18.344Z,102271.70
2019-04-20T03:45:56.196Z,102302.30
2019-04-20T03:46:30.917Z,102296.06
2019-04-20T03:46:59.689Z,102294.28
2019-04-20T03:47:38.768Z,102294.28
2019-04-20T03:48:09.154Z,102296.37
2019-04-20T03:48:46.516Z,102290.45
2019-04-20T03:49:27.999Z,102295.78
2019-04-20T03:50:03.310Z,102295.39
2019-04-20T03:50:37.856Z,102295.39
2019-04-20T03:51:08.694Z,102292.06
2019-04-20T03:51:40.236Z,102292.06
2019-04-20T03:52:27.663Z,102292.74
2019-04-20T03:53:08.904Z,102293.05
2019-04-20T03:53:40.518Z,102274.97
2019-04-20T03:54:13.813Z,102274.97
2019-04-20T03:55:01.380Z,102283.62
2019-04-20T03:55:57.701Z,102285.91
2019-04-20T03:56:35.166Z,102285.91
2019-04-20T03:57:17.455Z,102294.23
2019-04-20T03:58:02.924Z,102291.95
2019-04-20T03:58:45.640Z,102297.34
2019-04-20T03:59:21.303Z,102294.51
2019-04-20T04:00:06.289Z,102274.25
2019-04-20T04:00:35.934Z,102274.25
2019-04-20T04:01:13.340Z,102288.51
2019-04-20T04:02:12.086Z,102288.51
2019-04-20T04:02:31.458Z,102297.51
2019-04-20T04:03:12.856Z,102297.94
2019-04-20T04:04:21.171Z,102296.91
2019-04-20T04:04:54.561Z,102300.22
2019-04-20T04:05:27.708Z,102300.22
2019-04-20T04:06:03.101Z,102301.92
2019-04-20T04:06:33.067Z,102299.59
2019-04-20T04:06:59.764Z,102299.59
2019-04-20T04:07:36.861Z,102289.77
2019-04-20T04:08:12.216Z,102298.20
2019-04-20T04:08:42.414Z,102277.70
2019-04-20T04:09:22.628Z,102277.70
2019-04-20T04:09:59.796Z,102300.37
2019-04-20T04:10:28.079Z,102299.77
2019-04-20T04:11:08.508Z,102299.77
2019-04-20T04:11:38.071Z,102300.05
2019-04-20T04:12:25.374Z,102300.05
2019-04-20T04:13:16.960Z,102302.33
2019-04-20T04:13:48.340Z,102302.95
2019-04-20T04:14:19.871Z,102302.95
2019-04-20T04:14:51.518Z,102302.95
2019-04-20T04:15:23.106Z,102307.53
2019-04-20T04:15:59.316Z,102284.75
2019-04-20T04:16:36.440Z,102284.75
2019-04-20T04:17:02.665Z,102308.95
2019-04-20T04:17:38.913Z,102305.72
2019-04-20T04:18:13.832Z,102303.51
2019-04-20T04:18:44.730Z,102310.92
2019-04-20T04:19:21.554Z,102310.92
2019-04-20T04:19:55.748Z,102293.47
2019-04-20T04:20:21.418Z,102293.59
2019-04-20T04:21:00.052Z,102311.25
2019-04-20T04:21:42.296Z,102310.45
2019-04-20T04:22:12.458Z,102288.31
2019-04-20T04:22:50.053Z,102304.78
2019-04-20T04:23:26.454Z,102301.48
2019-04-20T04:23:55.862Z,102301.48
2019-04-20T04:24:23.476Z,102294.18
2019-04-20T04:25:03.828Z,102305.23
2019-04-20T04:25:28.683Z,102305.23
2019-04-20T04:26:08.781Z,102306.94
2019-04-20T04:26:38.994Z,102306.94
2019-04-20T04:27:09.469Z,102312.07
2019-04-20T04:27:48.774Z,102292.09
2019-04-20T04:28:19.484Z,102312.74
2019-04-20T04:28:56.276Z,102317.47
2019-04-20T04:29:34.594Z,102309.94
2019-04-20T04:30:01.779Z,102309.94
2019-04-20T04:30:30.866Z,102313.84
2019-04-20T04:31:08.219Z,102317.35
2019-04-20T04:31:52.963Z,102310.84
2019-04-20T04:32:20.889Z,102310.84
2019-04-20T04:33:08.554Z,102320.95
2019-04-20T04:33:50.448Z,102313.84
2019-04-20T04:34:28.776Z,102309.34
2019-04-20T04:34:58.574Z,102298.73
2019-04-20T04:36:01.028Z,102322.74
2019-04-20T04:36:38.708Z,102322.74
2019-04-20T04:37:10.717Z,102321.24
2019-04-20T04:37:45.917Z,102324.56
2019-04-20T04:38:24.107Z,102317.77
2019-04-20T04:38:53.684Z,102323.50
2019-04-20T04:39:28.010Z,102319.27
2019-04-20T04:40:00.996Z,102319.27
2019-04-20T04:40:40.766Z,102304.23
2019-04-20T04:41:36.467Z,102317.61
2019-04-20T04:42:17.856Z,102323.73
2019-04-20T04:42:48.135Z,102301.42
2019-04-20T04:43:17.110Z,102306.87
2019-04-20T04:43:49.434Z,102306.87
2019-04-20T04:44:19.379Z,102301.97
2019-04-20T04:44:46.795Z,102301.14
2019-04-20T04:45:13.961Z,102317.52
2019-04-20T04:45:44.631Z,102304.77
2019-04-20T04:46:16.555Z,102304.77
2019-04-20T04:46:54.677Z,102297.27
2019-04-20T04:47:21.924Z,102320.75
2019-04-20T04:47:53.669Z,102320.75
2019-04-20T04:48:29.975Z,102317.14
2019-04-20T04:49:06.835Z,102317.14
2019-04-20T04:49:36.837Z,102318.75
2019-04-20T04:50:12.626Z,102292.34
2019-04-20T04:50:49.595Z,102321.35
2019-04-20T04:51:20.009Z,102303.41
2019-04-20T04:51:52.062Z,102318.64
2019-04-20T04:52:27.818Z,102318.64
2019-04-20T04:53:01.037Z,102316.94
2019-04-20T04:53:36.714Z,102325.77
2019-04-20T04:54:03.750Z,102322.08
2019-04-20T04:54:40.094Z,102311.13
2019-04-20T04:55:18.861Z,102320.03
2019-04-20T04:55:50.079Z,102317.43
2019-04-20T04:56:16.497Z,102327.78
2019-04-20T04:56:44.468Z,102327.78
2019-04-20T04:57:15.799Z,102305.08
2019-04-20T04:57:47.369Z,102305.08
2019-04-20T04:58:19.538Z,102308.99
2019-04-20T04:58:51.726Z,102318.72
2019-04-20T04:59:23.535Z,102322.16
2019-04-20T04:59:55.267Z,102327.06
2019-04-20T05:00:31.089Z,102321.45
2019-04-20T05:01:05.626Z,102319.55
2019-04-20T05:01:35.601Z,102321.14
2019-04-20T05:02:05.980Z,102300.97
2019-04-20T05:02:43.244Z,102320.34
2019-04-20T05:03:31.083Z,102318.25
2019-04-20T05:04:09.859Z,102323.95
2019-04-20T05:04:43.073Z,102323.95
2019-04-20T05:05:20.064Z,102323.47
2019-04-20T05:05:54.300Z,102323.47
2019-04-20T05:06:28.102Z,102320.72
2019-04-20T05:06:59.747Z,102320.72
2019-04-20T05:07:47.769Z,102321.34
2019-04-20T05:08:15.459Z,102321.34
2019-04-20T05:08:45.396Z,102295.05
2019-04-20T05:09:15.429Z,102314.79
2019-04-20T05:09:46.501Z,102318.02
2019-04-20T05:10:18.935Z,102312.98
2019-04-20T05:10:51.956Z,102312.98
2019-04-20T05:11:23.827Z,102321.00
2019-04-20T05:12:02.329Z,102321.00
2019-04-20T05:12:31.636Z,102317.88
2019-04-20T05:13:01.357Z,102317.88
2019-04-20T05:13:41.834Z,102315.96
2019-04-20T05:14:10.146Z,102314.33
2019-04-20T05:14:49.690Z,102298.19
2019-04-20T05:15:24.538Z,102298.19
2019-04-20T05:16:00.403Z,102319.77
2019-04-20T05:16:43.159Z,102321.08
2019-04-20T05:17:07.344Z,102320.47
2019-04-20T05:17:51.140Z,102318.03
2019-04-20T05:18:22.396Z,102310.20
2019-04-20T05:18:57.630Z,102321.44
2019-04-20T05:19:41.379Z,102300.05
2019-04-20T05:19:57.507Z,102317.41
2019-04-20T05:20:29.296Z,102302.25
2019-04-20T05:21:05.907Z,102315.05
2019-04-20T05:21:53.555Z,102300.62
2019-04-20T05:22:19.382Z,102317.05
2019-04-20T05:22:55.881Z,102320.78
2019-04-20T05:23:25.263Z,102327.92
2019-04-20T05:24:22.702Z,102299.88
2019-04-20T05:25:19.483Z,102299.88
2019-04-20T05:25:56.972Z,102323.28
2019-04-20T05:26:39.772Z,102313.94
2019-04-20T05:27:31.825Z,102313.94
2019-04-20T05:28:04.144Z,102314.02
2019-04-20T05:28:32.084Z,102319.86
2019-04-20T05:29:01.370Z,102318.62
2019-04-20T05:29:30.035Z,102313.50
2019-04-20T05:29:59.193Z,102317.99
2019-04-20T05:30:34.449Z,102316.80
2019-04-20T05:31:08.950Z,102313.89
2019-04-20T05:31:46.620Z,102313.89
2019-04-20T05:32:17.017Z,102317.37
2019-04-20T05:32:56.129Z,102317.37
2019-04-20T05:33:28.221Z,102310.77
2019-04-20T05:34:15.745Z,102315.88
2019-04-20T05:34:45.113Z,102300.53
2019-04-20T05:35:22.636Z,102305.89
2019-04-20T05:35:49.648Z,102295.36
2019-04-20T05:36:26.370Z,102319.22
2019-04-20T05:36:58.096Z,102314.56
2019-04-20T05:37:34.634Z,102314.56
2019-04-20T05:38:06.971Z,102321.38
2019-04-20T05:38:43.077Z,102321.38
2019-04-20T05:39:19.051Z,102315.02
2019-04-20T05:39:47.420Z,102316.03
2019-04-20T05:40:20.594Z,102312.45
2019-04-20T05:40:50.307Z,102312.45
2019-04-20T05:41:21.580Z,102296.81
2019-04-20T05:41:53.162Z,102296.81
2019-04-20T05:42:30.293Z,102290.17
2019-04-20T05:43:00.428Z,102307.42
2019-04-20T05:43:38.302Z,102295.89
2019-04-20T05:44:09.996Z,102295.16
2019-04-20T05:44:49.944Z,102316.29
2019-04-20T05:45:22.332Z,102287.87
2019-04-20T05:45:50.542Z,102317.47
2019-04-20T05:46:32.082Z,102312.00
2019-04-20T05:47:06.943Z,102294.16
2019-04-20T05:47:33.436Z,102294.16
2019-04-20T05:48:09.924Z,102314.09
2019-04-20T05:48:48.891Z,102314.98
2019-04-20T05:49:23.600Z,102310.73
2019-04-20T05:49:45.309Z,102317.08
2019-04-20T05:50:29.070Z,102314.22
2019-04-20T05:51:00.023Z,102314.80
2019-04-20T05:51:36.393Z,102314.48
2019-04-20T05:52:18.986Z,102314.25
2019-04-20T05:52:44.038Z,102312.70
2019-04-20T05:53:13.062Z,102314.52
2019-04-20T05:53:45.763Z,102312.41
2019-04-20T05:54:18.981Z,102313.88
2019-04-20T05:54:51.237Z,102317.00
2019-04-20T05:55:29.457Z,102315.25
2019-04-20T05:55:57.312Z,102298.48
2019-04-20T05:56:35.742Z,102298.48
2019-04-20T05:57:05.382Z,102316.69
2019-04-20T05:57:35.955Z,102317.86
2019-04-20T05:58:11.205Z,102321.04
2019-04-20T05:58:45.031Z,102296.25
2019-04-20T05:59:16.244Z,102305.33
2019-04-20T05:59:57.188Z,102313.95
2019-04-20T06:00:27.747Z,102317.07
2019-04-20T06:01:00.489Z,102318.55
2019-04-20T06:01:34.487Z,102319.20
2019-04-20T06:02:09.939Z,102316.69
2019-04-20T06:02:39.157Z,102316.44
2019-04-20T06:03:11.908Z,102315.54
2019-04-20T06:03:42.564Z,102315.23
2019-04-20T06:04:30.048Z,102314.48
2019-04-20T06:05:28.832Z,102313.84
2019-04-20T06:06:03.729Z,102312.63
2019-04-20T06:06:33.507Z,102308.36
2019-04-20T06:07:08.273Z,102315.50
2019-04-20T06:07:35.953Z,102311.73
2019-04-20T06:08:22.993Z,102311.83
2019-04-20T06:08:56.366Z,102310.67
2019-04-20T06:09:22.686Z,102310.33
2019-04-20T06:09:55.653Z,102307.00
2019-04-20T06:10:27.627Z,102310.78
2019-04-20T06:11:04.564Z,102309.93
2019-04-20T06:11:34.458Z,102311.34
2019-04-20T06:12:14.085Z,102302.27
2019-04-20T06:12:40.015Z,102308.47
2019-04-20T06:13:11.390Z,102307.31
2019-04-20T06:13:47.038Z,102306.91
2019-04-20T06:14:25.682Z,102303.08
2019-04-20T06:15:13.034Z,102304.53
2019-04-20T06:16:07.417Z,102305.69
2019-04-20T06:16:49.813Z,102308.00
2019-04-20T06:17:20.905Z,102308.56
2019-04-20T06:18:03.880Z,102305.19
2019-04-20T06:18:45.891Z,102305.44
2019-04-20T06:20:01.717Z,102305.52
2019-04-20T06:20:33.963Z,102303.89
2019-04-20T06:21:14.282Z,102301.33
2019-04-20T06:21:47.144Z,102303.64
2019-04-20T06:22:23.098Z,102297.14
2019-04-20T06:22:48.556Z,102295.52
2019-04-20T06:23:47.118Z,102296.16
2019-04-20T06:24:16.945Z,102297.13
2019-04-20T06:25:19.165Z,102300.89
2019-04-20T06:25:44.024Z,102295.39
2019-04-20T06:26:26.772Z,102295.27
2019-04-20T06:26:56.543Z,102292.32
2019-04-20T06:27:29.316Z,102295.99
2019-04-20T06:27:59.317Z,102297.45
2019-04-20T06:28:26.724Z,102289.27
2019-04-20T06:28:57.163Z,102289.91
2019-04-20T06:29:34.935Z,102296.20
2019-04-20T06:30:08.553Z,102296.35
2019-04-20T06:30:40.593Z,102294.78
2019-04-20T06:31:19.092Z,102296.27
2019-04-20T06:31:45.443Z,102299.45
2019-04-20T06:32:28.632Z,102295.19
2019-04-20T06:35:04.646Z,102296.61
2019-04-20T06:35:54.619Z,102299.33
2019-04-20T06:36:29.209Z,102299.78
2019-04-20T06:37:10.157Z,102303.05
2019-04-20T06:37:55.093Z,102298.80
2019-04-20T06:38:42.230Z,102296.66
2019-04-20T06:39:02.541Z,102295.48
2019-04-20T06:39:40.654Z,102298.20
2019-04-20T06:40:08.755Z,102297.12
2019-04-20T06:41:21.252Z,102297.75
2019-04-20T06:42:05.495Z,102296.08
2019-04-20T06:42:18.106Z,102296.22
2019-04-20T06:42:49.900Z,102297.70
2019-04-20T06:43:25.412Z,102302.20
2019-04-20T06:44:02.678Z,102297.84
2019-04-20T06:44:32.042Z,102299.16
2019-04-20T06:45:04.154Z,102296.94
2019-04-20T06:45:45.393Z,102299.57
2019-04-20T06:46:09.817Z,102299.66
2019-04-20T06:46:45.627Z,102296.62
2019-04-20T06:47:16.368Z,102299.70
2019-04-20T06:47:54.391Z,102299.80
2019-04-20T06:48:30.883Z,102300.29
2019-04-20T06:48:55.096Z,102296.89
2019-04-20T06:50:01.470Z,102300.23
2019-04-20T06:50:30.234Z,102300.78
2019-04-20T06:51:09.291Z,102298.33
2019-04-20T06:51:47.494Z,102299.37
2019-04-20T06:52:27.349Z,102294.66
2019-04-20T06:53:18.713Z,102296.96
2019-04-20T06:53:52.660Z,102289.62
2019-04-20T06:54:38.460Z,102295.91